createdAt,value
2023-01-02T00:02:10.298Z,14.80
2023-01-02T00:04:37.234Z,18.52
2023-01-02T00:07:04.048Z,12.82
2023-01-02T00:09:31.424Z,12.82
2023-01-02T00:11:58.309Z,14.13
2023-01-02T00:14:25.231Z,18.83
2023-01-02T00:16:52.416Z,10.85
2023-01-02T00:19:19.675Z,11.13
2023-01-02T00:21:48.691Z,13.35
2023-01-02T00:24:18.890Z,10.20
2023-01-02T00:32:07.193Z,8.55
2023-01-02T00:34:34.121Z,7.90
2023-01-02T00:37:00.894Z,11.85
2023-01-02T00:39:29.577Z,11.25
2023-01-02T00:41:56.452Z,10.63
2023-01-02T00:44:23.386Z,11.90
2023-01-02T00:46:50.358Z,12.45
2023-01-02T00:49:17.268Z,14.65
2023-01-02T00:51:44.157Z,10.60
2023-01-02T00:54:11.015Z,10.68
2023-01-02T00:56:37.932Z,9.57
2023-01-02T00:59:05.166Z,10.40
2023-01-02T01:01:32.515Z,8.00
2023-01-02T01:04:01.081Z,8.10
2023-01-02T01:06:27.938Z,10.30
2023-01-02T01:08:55.131Z,8.27
2023-01-02T01:11:21.951Z,8.40
2023-01-02T01:13:48.738Z,12.60
2023-01-02T01:16:18.157Z,23.83
2023-01-02T01:18:45.424Z,10.57
2023-01-02T01:21:15.232Z,11.07
2023-01-02T01:23:42.195Z,12.23
2023-01-02T01:26:12.259Z,13.35
2023-01-02T01:28:39.970Z,7.45
2023-01-02T01:31:12.826Z,15.23
2023-01-02T01:33:41.608Z,16.60
2023-01-02T01:36:15.190Z,17.40
2023-01-02T01:38:42.684Z,24.70
2023-01-02T01:41:12.807Z,19.67
2023-01-02T01:43:46.321Z,30.35
2023-01-02T01:46:47.695Z,14.63
2023-01-02T01:49:32.916Z,12.63
2023-01-02T01:52:04.403Z,33.65
2023-01-02T01:54:39.211Z,32.30
2023-01-02T01:57:20.863Z,33.55
2023-01-02T01:59:48.612Z,37.60
2023-01-02T02:02:15.967Z,27.90
2023-01-02T02:04:45.346Z,19.83
2023-01-02T02:07:13.160Z,22.83
2023-01-02T02:09:52.200Z,19.17
2023-01-02T02:12:24.313Z,17.60
2023-01-02T02:14:54.586Z,17.52
2023-01-02T02:18:03.256Z,16.25
2023-01-02T02:20:44.664Z,19.33
2023-01-02T02:23:30.463Z,23.55
2023-01-02T02:26:35.319Z,17.52
2023-01-02T02:29:41.883Z,22.08
2023-01-02T02:32:28.648Z,20.33
2023-01-02T02:35:14.101Z,22.27
2023-01-02T02:38:03.296Z,24.45
2023-01-02T02:40:36.300Z,20.20
2023-01-02T02:43:10.968Z,24.73
2023-01-02T02:45:40.732Z,21.30
2023-01-02T02:48:34.443Z,15.80
2023-01-02T02:51:09.762Z,25.00
2023-01-02T02:53:43.528Z,23.00
2023-01-02T02:56:12.275Z,22.25
2023-01-02T02:58:41.488Z,21.85
2023-01-02T03:01:14.275Z,19.70
2023-01-02T03:03:41.316Z,21.88
2023-01-02T03:06:17.222Z,19.58
2023-01-02T03:09:29.187Z,21.25
2023-01-02T03:12:33.681Z,21.52
2023-01-02T03:15:24.962Z,18.60
2023-01-02T03:17:55.089Z,20.65
2023-01-02T03:20:27.207Z,19.55
2023-01-02T03:23:00.884Z,16.38
2023-01-02T03:25:28.800Z,16.17
2023-01-02T03:27:58.326Z,18.42
2023-01-02T03:30:25.718Z,16.40
2023-01-02T03:32:58.214Z,15.35
2023-01-02T03:35:44.435Z,17.23
2023-01-02T03:38:28.893Z,17.25
2023-01-02T03:41:08.030Z,18.52
2023-01-02T03:43:37.049Z,16.77
2023-01-02T03:46:24.870Z,14.52
2023-01-02T03:49:09.280Z,16.35
2023-01-02T03:51:36.449Z,17.92
2023-01-02T03:54:04.528Z,17.75
2023-01-02T03:56:52.959Z,12.80
2023-01-02T03:59:57.434Z,16.50
2023-01-02T04:02:27.570Z,21.45
2023-01-02T04:04:58.485Z,17.15
2023-01-02T04:07:39.129Z,21.02
2023-01-02T04:10:08.292Z,15.05
2023-01-02T04:12:39.443Z,15.82
2023-01-02T04:15:09.448Z,11.32
2023-01-02T04:17:42.871Z,13.90
2023-01-02T04:20:16.597Z,10.05
2023-01-02T04:22:54.320Z,11.38
2023-01-02T04:25:24.776Z,13.35
2023-01-02T04:28:11.153Z,13.30
2023-01-02T04:30:45.118Z,16.15
2023-01-02T04:33:14.522Z,14.63
2023-01-02T04:35:41.764Z,13.98
2023-01-02T04:38:10.687Z,22.17
2023-01-02T04:40:38.294Z,17.23
2023-01-02T04:43:08.890Z,19.80
2023-01-02T04:45:36.230Z,21.30
2023-01-02T04:48:03.155Z,22.80
2023-01-02T04:50:30.399Z,18.05
2023-01-02T04:52:57.631Z,17.15
2023-01-02T04:55:24.395Z,24.40
2023-01-02T04:57:51.293Z,16.98
2023-01-02T05:00:18.599Z,20.92
2023-01-02T05:02:46.018Z,15.43
2023-01-02T05:05:13.016Z,18.20
2023-01-02T05:07:40.127Z,19.73
2023-01-02T05:10:07.988Z,13.27
2023-01-02T05:12:36.186Z,15.85
2023-01-02T05:15:04.517Z,13.27
2023-01-02T05:17:39.133Z,18.20
2023-01-02T05:20:08.606Z,19.30
2023-01-02T05:22:53.935Z,14.18
2023-01-02T05:25:20.734Z,15.50
2023-01-02T05:27:47.648Z,14.25
2023-01-02T05:30:14.574Z,15.35
2023-01-02T05:32:41.386Z,17.38
2023-01-02T05:35:09.020Z,15.95
2023-01-02T05:37:35.890Z,14.75
2023-01-02T05:40:03.402Z,16.23
2023-01-02T05:42:30.225Z,17.92
2023-01-02T05:44:57.076Z,16.38
2023-01-02T05:47:24.535Z,16.50
2023-01-02T05:49:51.363Z,16.00
2023-01-02T05:52:18.202Z,18.45
2023-01-02T05:54:45.116Z,18.52
2023-01-02T05:57:12.012Z,15.20
2023-01-02T05:59:38.792Z,17.88
2023-01-02T06:02:05.632Z,16.00
2023-01-02T06:04:32.522Z,19.50
2023-01-02T06:06:59.705Z,17.05
2023-01-02T06:09:26.543Z,19.80
2023-01-02T06:11:53.277Z,19.15
2023-01-02T06:14:22.376Z,18.40
2023-01-02T06:16:49.270Z,26.13
2023-01-02T06:19:16.192Z,21.83
2023-01-02T06:21:43.040Z,23.92
2023-01-02T06:24:09.975Z,20.73
2023-01-02T06:26:37.236Z,16.00
2023-01-02T06:29:04.612Z,13.50
2023-01-02T06:31:33.417Z,12.75
2023-01-02T06:34:02.689Z,12.30
2023-01-02T06:36:31.743Z,14.02
2023-01-02T06:38:59.224Z,17.13
2023-01-02T06:41:26.777Z,16.02
2023-01-02T06:43:53.807Z,18.52
2023-01-02T06:46:22.630Z,18.90
2023-01-02T06:48:50.331Z,17.48
2023-01-02T06:51:20.416Z,21.35
2023-01-02T06:53:47.568Z,22.30
2023-01-02T06:56:17.632Z,19.33
2023-01-02T06:58:44.653Z,22.90
2023-01-02T07:01:17.214Z,25.08
2023-01-02T07:03:44.264Z,28.52
2023-01-02T07:06:14.480Z,32.90
2023-01-02T07:08:43.120Z,26.58
2023-01-02T07:11:14.313Z,30.80
2023-01-02T07:13:43.095Z,24.52
2023-01-02T07:16:12.939Z,27.08
2023-01-02T07:18:40.283Z,24.05
2023-01-02T07:21:08.804Z,26.48
2023-01-02T07:23:36.346Z,21.40
2023-01-02T07:26:05.648Z,22.48
2023-01-02T07:28:33.482Z,23.83
2023-01-02T07:31:02.816Z,21.05
2023-01-02T07:33:31.205Z,22.38
2023-01-02T07:35:59.718Z,19.17
2023-01-02T07:38:27.507Z,21.27
2023-01-02T07:40:54.640Z,19.95
2023-01-02T07:43:21.985Z,18.13
2023-01-02T07:45:50.685Z,13.27
2023-01-02T07:48:18.539Z,15.60
2023-01-02T07:50:45.816Z,14.30
2023-01-02T07:53:12.864Z,21.35
2023-01-02T07:55:39.678Z,14.40
2023-01-02T07:58:06.618Z,16.40
2023-01-02T08:00:33.396Z,16.52
2023-01-02T08:03:01.298Z,14.20
2023-01-02T08:05:28.233Z,13.90
2023-01-02T08:07:55.465Z,15.15
2023-01-02T08:10:23.075Z,14.57
2023-01-02T08:12:50.004Z,14.10
2023-01-02T08:15:17.028Z,12.63
2023-01-02T08:17:44.002Z,10.30
2023-01-02T08:20:11.553Z,12.57
2023-01-02T08:22:38.985Z,14.18
2023-01-02T08:25:06.584Z,14.00
2023-01-02T08:30:10.042Z,20.35
2023-01-02T08:40:37.341Z,23.67
2023-01-02T08:43:08.596Z,20.85
2023-01-02T08:45:36.455Z,22.70
2023-01-02T08:48:21.507Z,19.65
2023-01-02T08:50:50.400Z,21.20
2023-01-02T08:53:18.492Z,24.95
2023-01-02T08:55:46.047Z,25.35
2023-01-02T08:58:13.433Z,23.45
2023-01-02T09:00:44.247Z,21.98
2023-01-02T09:03:11.623Z,25.55
2023-01-02T09:05:38.869Z,23.10
2023-01-02T09:08:06.099Z,19.48
2023-01-02T09:10:36.169Z,19.55
2023-01-02T09:13:06.771Z,18.85
2023-01-02T09:15:34.356Z,18.83
2023-01-02T09:18:01.642Z,18.23
2023-01-02T09:20:34.570Z,19.02
2023-01-02T09:23:01.721Z,16.17
2023-01-02T09:25:28.817Z,15.60
2023-01-02T09:27:55.719Z,17.23
2023-01-02T09:30:24.012Z,12.30
2023-01-02T09:32:51.275Z,12.10
2023-01-02T09:35:18.611Z,14.75
2023-01-02T09:37:48.738Z,14.65
2023-01-02T09:40:21.634Z,12.70
2023-01-02T09:42:51.302Z,13.77
2023-01-02T09:45:18.840Z,12.23
2023-01-02T09:47:47.753Z,14.10
2023-01-02T09:50:28.002Z,13.40
2023-01-02T09:52:58.373Z,12.13
2023-01-02T09:55:45.572Z,12.13
2023-01-02T09:58:24.769Z,10.98
2023-01-02T10:00:52.152Z,14.60
2023-01-02T10:03:38.691Z,8.65
2023-01-02T10:06:09.456Z,12.48
2023-01-02T10:09:07.952Z,10.70
2023-01-02T10:11:41.111Z,10.98
2023-01-02T10:20:08.942Z,10.88
2023-01-02T10:22:49.959Z,7.95
2023-01-02T10:25:24.090Z,9.27
2023-01-02T10:27:56.360Z,11.35
2023-01-02T10:30:26.293Z,6.05
2023-01-02T10:32:57.752Z,8.77
2023-01-02T10:35:34.523Z,10.05
2023-01-02T10:38:02.147Z,7.53
2023-01-02T10:40:30.297Z,13.13
2023-01-02T10:43:00.738Z,9.15
2023-01-02T10:45:28.437Z,5.70
2023-01-02T10:47:55.322Z,11.07
2023-01-02T10:50:29.292Z,10.18
2023-01-02T10:53:08.926Z,8.85
2023-01-02T10:55:43.274Z,7.80
2023-01-02T10:58:26.892Z,15.35
2023-01-02T11:01:22.188Z,5.70
2023-01-02T11:04:11.715Z,6.75
2023-01-02T11:06:57.429Z,4.40
2023-01-02T11:09:29.899Z,8.48
2023-01-02T11:12:12.611Z,5.60
2023-01-02T11:14:46.042Z,5.00
2023-01-02T11:17:21.875Z,5.97
2023-01-02T11:19:52.051Z,5.53
2023-01-02T11:22:32.409Z,4.53
2023-01-02T11:25:03.050Z,4.90
2023-01-02T11:27:35.721Z,3.63
2023-01-02T11:30:05.774Z,3.72
2023-01-02T11:32:41.044Z,4.82
2023-01-02T11:35:37.020Z,4.60
2023-01-02T11:38:03.981Z,4.75
2023-01-02T11:40:32.398Z,22.20
2023-01-02T11:43:25.700Z,13.32
2023-01-02T11:45:53.258Z,15.43
2023-01-02T11:48:23.175Z,13.52
2023-01-02T11:50:51.149Z,10.98
2023-01-02T11:53:29.875Z,18.73
2023-01-02T11:56:05.221Z,12.60
2023-01-02T11:58:39.387Z,8.32
2023-01-02T12:01:18.895Z,9.73
2023-01-02T12:03:46.215Z,8.70
2023-01-02T12:06:19.825Z,9.57
2023-01-02T12:09:05.331Z,9.77
2023-01-02T12:11:54.644Z,7.85
2023-01-02T12:14:54.595Z,11.18
2023-01-02T12:18:03.969Z,15.60
2023-01-02T12:20:57.576Z,11.13
2023-01-02T12:23:55.666Z,14.65
2023-01-02T12:26:32.018Z,12.45
2023-01-02T12:29:46.656Z,10.85
2023-01-02T12:32:38.535Z,13.98
2023-01-02T12:35:20.414Z,14.55
2023-01-02T12:37:55.902Z,16.73
2023-01-02T12:40:31.847Z,15.35
2023-01-02T12:43:37.721Z,16.30
2023-01-02T12:46:11.040Z,16.05
2023-01-02T12:49:19.445Z,14.95
2023-01-02T12:52:00.499Z,16.02
2023-01-02T12:54:55.327Z,16.85
2023-01-02T12:57:46.980Z,13.38
2023-01-02T13:00:19.681Z,14.90
2023-01-02T13:03:22.137Z,12.85
2023-01-02T13:06:02.782Z,16.52
2023-01-02T13:08:37.130Z,23.13
2023-01-02T13:11:06.111Z,20.55
2023-01-02T13:13:37.040Z,15.82
2023-01-02T13:16:24.491Z,15.88
2023-01-02T13:19:34.157Z,16.58
2023-01-02T13:22:35.423Z,13.82
2023-01-02T13:25:03.862Z,14.38
2023-01-02T13:27:31.898Z,11.90
2023-01-02T13:30:02.414Z,12.82
2023-01-02T13:32:31.079Z,17.33
2023-01-02T13:35:01.951Z,15.88
2023-01-02T13:37:30.027Z,16.02
2023-01-02T13:40:02.600Z,19.40
2023-01-02T13:43:02.010Z,22.15
2023-01-02T13:45:37.230Z,17.45
2023-01-02T13:48:13.570Z,14.00
2023-01-02T13:50:40.805Z,15.43
2023-01-02T13:53:31.031Z,17.60
2023-01-02T13:56:16.275Z,13.00
2023-01-02T13:58:45.458Z,16.17
2023-01-02T14:01:21.598Z,12.95
2023-01-02T14:04:13.035Z,13.75
2023-01-02T14:06:50.036Z,13.75
2023-01-02T14:09:22.348Z,11.43
2023-01-02T14:11:57.727Z,13.98
2023-01-02T14:14:54.265Z,15.65
2023-01-02T14:18:03.063Z,16.02
2023-01-02T14:20:38.630Z,23.10
2023-01-02T14:23:23.151Z,26.13
2023-01-02T14:25:50.959Z,20.40
2023-01-02T14:28:27.685Z,15.95
2023-01-02T14:30:56.232Z,11.50
2023-01-02T14:33:36.384Z,16.65
2023-01-02T14:36:12.121Z,18.38
2023-01-02T14:38:52.383Z,17.77
2023-01-02T14:42:09.018Z,16.60
2023-01-02T14:44:43.938Z,14.38
2023-01-02T14:47:21.210Z,18.35
2023-01-02T14:49:59.819Z,16.80
2023-01-02T14:52:40.888Z,16.73
2023-01-02T14:55:19.444Z,23.35
2023-01-02T14:57:52.471Z,26.08
2023-01-02T15:00:33.647Z,33.78
2023-01-02T15:03:37.954Z,38.42
2023-01-02T15:06:17.176Z,28.42
2023-01-02T15:08:49.370Z,27.02
2023-01-02T15:11:45.063Z,28.00
2023-01-02T15:14:23.808Z,27.40
2023-01-02T15:17:13.740Z,26.52
2023-01-02T15:19:42.565Z,31.20
2023-01-02T15:22:11.080Z,35.78
2023-01-02T15:24:46.514Z,29.67
2023-01-02T15:27:31.120Z,31.90
2023-01-02T15:30:00.850Z,39.80
2023-01-02T15:32:33.644Z,40.67
2023-01-02T15:35:13.188Z,38.30
2023-01-02T15:37:44.968Z,34.35
2023-01-02T15:40:16.554Z,43.15
2023-01-02T15:43:02.895Z,30.55
2023-01-02T15:45:32.998Z,22.00
2023-01-02T15:48:00.394Z,21.83
2023-01-02T15:50:29.670Z,24.17
2023-01-02T15:53:05.529Z,21.17
2023-01-02T15:55:39.230Z,29.42
2023-01-02T15:58:25.645Z,29.73
2023-01-02T16:01:18.790Z,21.23
2023-01-02T16:04:00.733Z,21.05
2023-01-02T16:06:39.093Z,23.70
2023-01-02T16:09:16.776Z,36.80
2023-01-02T16:11:52.002Z,46.97
2023-01-02T16:14:26.127Z,36.60
2023-01-02T16:17:04.722Z,48.03
2023-01-02T16:19:35.933Z,72.63
2023-01-02T16:22:20.459Z,57.33
2023-01-02T16:24:53.243Z,54.47
2023-01-02T16:27:29.910Z,69.50
2023-01-02T16:29:57.226Z,73.72
2023-01-02T16:32:28.561Z,63.33
2023-01-02T16:35:03.525Z,67.90
2023-01-02T16:37:39.551Z,97.20
2023-01-02T16:41:00.427Z,76.22
2023-01-02T16:43:12.270Z,81.93
2023-01-02T16:45:39.870Z,150.55
2023-01-02T16:48:12.771Z,176.38
2023-01-02T16:50:43.686Z,165.18
2023-01-02T16:53:19.086Z,177.30
2023-01-02T16:55:46.624Z,146.05
2023-01-02T16:58:13.520Z,106.72
2023-01-02T17:00:43.603Z,115.35
2023-01-02T17:03:17.718Z,109.40
2023-01-02T17:06:01.319Z,136.00
2023-01-02T17:08:32.293Z,124.47
2023-01-02T17:11:00.585Z,119.35
2023-01-02T17:13:28.692Z,94.78
2023-01-02T17:15:56.004Z,90.95
2023-01-02T17:18:23.400Z,83.22
2023-01-02T17:20:50.858Z,80.70
2023-01-02T17:23:19.661Z,84.97
2023-01-02T17:25:47.442Z,98.53
2023-01-02T17:28:15.063Z,143.07
2023-01-02T17:30:43.766Z,171.90
2023-01-02T17:33:12.485Z,115.70
2023-01-02T17:35:39.507Z,136.73
2023-01-02T17:38:06.828Z,129.57
2023-01-02T17:40:34.336Z,91.03
2023-01-02T17:43:01.275Z,129.93
2023-01-02T17:45:28.296Z,136.93
2023-01-02T17:48:02.740Z,178.40
2023-01-02T17:50:42.104Z,165.27
2023-01-02T17:53:09.480Z,157.20
2023-01-02T17:55:36.862Z,149.30
2023-01-02T17:58:04.391Z,191.85
2023-01-02T18:00:31.442Z,180.07
2023-01-02T18:02:58.695Z,153.13
2023-01-02T18:05:25.603Z,115.70
2023-01-02T18:07:52.558Z,96.80
2023-01-02T18:10:20.900Z,125.10
2023-01-02T18:12:49.632Z,133.10
2023-01-02T18:15:18.440Z,118.43
2023-01-02T18:17:45.320Z,96.28
2023-01-02T18:20:20.628Z,115.80
2023-01-02T18:22:50.484Z,79.55
2023-01-02T18:25:30.037Z,74.40
2023-01-02T18:28:15.592Z,152.63
2023-01-02T18:30:44.548Z,185.60
2023-01-02T18:33:17.519Z,193.80
2023-01-02T18:36:00.450Z,173.23
2023-01-02T18:38:36.042Z,145.50
2023-01-02T18:41:36.928Z,133.40
2023-01-02T18:44:22.367Z,150.15
2023-01-02T18:47:04.374Z,154.25
2023-01-02T18:49:40.502Z,145.55
2023-01-02T18:52:27.674Z,131.27
2023-01-02T18:54:59.514Z,97.60
2023-01-02T18:57:34.021Z,162.50
2023-01-02T19:00:14.722Z,90.65
2023-01-02T19:03:01.366Z,181.40
2023-01-02T19:05:34.621Z,165.25
2023-01-02T19:08:13.544Z,183.38
2023-01-02T19:10:46.051Z,134.63
2023-01-02T19:13:25.607Z,141.95
2023-01-02T19:16:19.329Z,183.13
2023-01-02T19:18:54.063Z,227.77
2023-01-02T19:21:26.816Z,125.72
2023-01-02T19:24:04.311Z,103.63
2023-01-02T19:26:40.505Z,111.25
2023-01-02T19:29:10.498Z,161.98
2023-01-02T19:31:52.031Z,149.82
2023-01-02T19:34:38.991Z,163.98
2023-01-02T19:37:11.851Z,187.93
2023-01-02T19:39:51.860Z,227.70
2023-01-02T19:42:20.054Z,237.75
2023-01-02T19:44:46.869Z,205.63
2023-01-02T19:47:14.415Z,199.05
2023-01-02T19:49:41.435Z,201.60
2023-01-02T19:52:12.539Z,215.18
2023-01-02T19:54:40.356Z,176.68
2023-01-02T19:57:08.786Z,163.32
2023-01-02T19:59:43.346Z,136.98
2023-01-02T20:02:13.408Z,174.52
2023-01-02T20:04:43.036Z,125.05
2023-01-02T20:07:10.583Z,123.35
2023-01-02T20:09:37.719Z,130.30
2023-01-02T20:12:23.219Z,151.55
2023-01-02T20:14:50.686Z,119.45
2023-01-02T20:17:17.989Z,160.82
2023-01-02T20:19:45.184Z,189.93
2023-01-02T20:22:12.516Z,169.70
2023-01-02T20:24:39.335Z,179.60
2023-01-02T20:27:06.897Z,152.75
2023-01-02T20:29:33.751Z,180.27
2023-01-02T20:32:00.639Z,224.45
2023-01-02T20:34:27.471Z,212.13
2023-01-02T20:36:54.323Z,192.63
2023-01-02T20:39:21.838Z,220.73
2023-01-02T20:41:48.611Z,195.32
2023-01-02T20:44:15.654Z,149.45
2023-01-02T20:46:42.656Z,142.18
2023-01-02T20:49:12.795Z,130.25
2023-01-02T20:51:40.342Z,110.97
2023-01-02T20:54:07.990Z,110.93
2023-01-02T20:56:35.205Z,154.68
2023-01-02T20:59:02.104Z,133.65
2023-01-02T21:01:29.016Z,138.52
2023-01-02T21:03:56.108Z,120.53
2023-01-02T21:06:23.043Z,127.93
2023-01-02T21:08:50.257Z,107.03
2023-01-02T21:11:17.156Z,110.57
2023-01-02T21:13:43.977Z,122.00
2023-01-02T21:16:11.082Z,104.05
2023-01-02T21:18:39.619Z,89.65
2023-01-02T21:21:15.487Z,82.63
2023-01-02T21:23:42.668Z,94.93
2023-01-02T21:26:11.607Z,89.45
2023-01-02T21:28:38.879Z,64.05
2023-01-02T21:31:06.347Z,69.07
2023-01-02T21:33:34.090Z,112.38
2023-01-02T21:36:02.921Z,142.98
2023-01-02T21:38:30.840Z,134.68
2023-01-02T21:41:21.800Z,120.32
2023-01-02T21:43:49.134Z,123.80
2023-01-02T21:46:16.240Z,92.93
2023-01-02T21:48:43.223Z,83.82
2023-01-02T21:51:10.082Z,58.10
2023-01-02T21:53:37.052Z,59.60
2023-01-02T21:56:04.346Z,62.92
2023-01-02T21:58:33.486Z,58.72
2023-01-02T22:01:00.948Z,70.50
2023-01-02T22:03:28.268Z,62.00
2023-01-02T22:05:55.518Z,71.60
2023-01-02T22:08:22.793Z,66.70
2023-01-02T22:10:49.817Z,42.03
2023-01-02T22:13:16.771Z,59.10
2023-01-02T22:15:45.853Z,48.22
2023-01-02T22:18:12.836Z,45.13
2023-01-02T22:20:39.800Z,48.55
2023-01-02T22:23:06.653Z,51.90
2023-01-02T22:25:33.710Z,66.85
2023-01-02T22:28:01.129Z,84.68
2023-01-02T22:30:34.407Z,114.97
2023-01-02T22:33:02.967Z,128.80
2023-01-02T22:35:29.892Z,78.00
2023-01-02T22:37:59.646Z,108.90
2023-01-02T22:40:27.465Z,93.78
2023-01-02T22:43:03.925Z,100.50
2023-01-02T22:45:41.508Z,102.07
2023-01-02T22:48:19.433Z,100.93
2023-01-02T22:50:48.603Z,102.75
2023-01-02T22:53:19.613Z,89.28
2023-01-02T22:55:47.666Z,75.13
2023-01-02T22:58:14.907Z,69.15
2023-01-02T23:00:41.961Z,74.10
2023-01-02T23:03:16.450Z,65.53
2023-01-02T23:05:43.717Z,60.88
2023-01-02T23:08:10.740Z,53.63
2023-01-02T23:10:38.004Z,58.97
2023-01-02T23:13:05.015Z,56.15
2023-01-02T23:15:31.879Z,40.10
2023-01-02T23:18:17.385Z,32.42
2023-01-02T23:20:44.258Z,35.58
2023-01-02T23:23:11.247Z,40.90
2023-01-02T23:25:43.083Z,39.90
2023-01-02T23:28:20.474Z,30.67
2023-01-02T23:30:57.560Z,29.02
2023-01-02T23:33:24.463Z,24.83
2023-01-02T23:35:52.803Z,31.08
2023-01-02T23:38:20.550Z,25.98
2023-01-02T23:40:47.821Z,30.00
2023-01-02T23:43:14.730Z,24.23
2023-01-02T23:45:41.923Z,19.88
2023-01-02T23:48:08.820Z,17.58
2023-01-02T23:50:35.625Z,15.25
2023-01-02T23:53:02.445Z,16.95
2023-01-02T23:55:30.458Z,17.23
2023-01-02T23:57:57.319Z,26.10
